Portada
METAR-TAF:

METAR-TAF

Aeropuertos :

Agen, Francia

latitud: 44-11N, longitud: 000-36E, altitud: 61 m

Observación

El informe se hizo hace 41 minutos, a las 15:00 UTC
Viento 9 kt del este
Temperatura 16°C
Humedad 59%
Presión 1025 hPa
Visibilidad 10 km o más
sin nubes por debajo de 1500 m y sin presencia de cumulonimbus.

METAR: LFBA 161500Z AUTO 09009KT CAVOK 16/08 Q1025 NOSIG

Hora: 16:41 (15:41 UTC)

Pronóstico

El informe se hizo hace 1 hora y 41 minutos, a las 14:00 UTC
Pronóstico válido del 16 a las 15 UTC al 16 a las 24 UTC
Viento 7 kt del este-sureste
Visibilidad 10 km o más
sin nubes por debajo de 1500 m y sin presencia de cumulonimbus.

TAF: LFBA 161400Z 1615/1624 11007KT CAVOK

Observaciones y pronósticos meteorológicos de más de 4000 aeropuertos (mensajes METAR y TAF).

Los puntos amarillos y rojos representan las estaciones disponibles.

Ponga el ratón en el punto deseado para ver el nombre de la estación.

Haga clic para ver las observaciones y los pronósticos meteorológicos.

Para cambiar el mapa : haga clic en los botones verdes con una cruz de color negro para hacer un zoom, en el botón verde con un guión para alejar o en las flechas verdes para mapas adyacentes.


METAR-TAF: